Time;durP1;ratioP1;P1;durP2;ratioP2;P2;SDS_P1;SDS_P2;PMS_P1;PMS_P2;Temp;Humidity;BMP_temperature;BMP_pressure;BME280_temperature;BME280_humidity;BME280_pressure;Samples;Min_cycle;Max_cycle;Signal;HPM_P1;HPM_P2
2023/10/23 00:00:05;;;;;;;54.70;20.30;;;5.60;99.90;;;;;;5000664;28;20121;-76
2023/10/23 00:02:31;;;;;;;47.33;18.90;;;5.60;99.90;;;;;;4995499;28;20066;-79
2023/10/23 00:04:58;;;;;;;43.00;18.38;;;6.50;99.90;;;;;;4986521;28;20057;-75
2023/10/23 00:07:23;;;;;;;49.58;18.90;;;5.60;99.90;;;;;;4967764;28;20061;-76
2023/10/23 00:09:52;;;;;;;41.25;17.70;;;5.60;99.90;;;;;;4992362;28;20119;-76
2023/10/23 00:12:20;;;;;;;44.92;18.58;;;5.60;99.90;;;;;;4991286;28;20128;-78
2023/10/23 00:14:49;;;;;;;29.08;15.95;;;5.60;99.90;;;;;;4988969;28;20054;-77
2023/10/23 00:17:14;;;;;;;63.53;21.63;;;6.00;99.90;;;;;;4982025;28;20061;-75
2023/10/23 00:19:48;;;;;;;45.88;19.95;;;5.60;99.90;;;;;;4967551;28;20045;-75
2023/10/23 00:22:13;;;;;;;54.95;20.75;;;5.50;99.90;;;;;;4978680;28;20100;-75
2023/10/23 00:24:39;;;;;;;42.40;18.05;;;7.20;99.90;;;;;;4967614;28;20438;-76
2023/10/23 00:27:05;;;;;;;45.35;18.40;;;5.60;99.90;;;;;;5000837;28;20065;-74
2023/10/23 00:29:31;;;;;;;52.08;20.55;;;5.60;99.90;;;;;;4982243;28;20045;-78
2023/10/23 00:31:57;;;;;;;45.58;18.67;;;5.90;99.90;;;;;;4978381;28;20041;-77
2023/10/23 00:34:23;;;;;;;49.38;19.33;;;5.50;99.90;;;;;;4982192;28;20044;-75
2023/10/23 00:36:48;;;;;;;44.63;18.90;;;6.40;99.90;;;;;;4982941;28;20480;-75
2023/10/23 00:39:14;;;;;;;52.72;20.23;;;5.30;99.90;;;;;;4966041;28;20093;-78
2023/10/23 00:41:42;;;;;;;41.25;17.85;;;5.30;99.90;;;;;;4978266;28;20049;-79
2023/10/23 00:44:08;;;;;;;37.72;16.73;;;7.30;99.90;;;;;;4988787;28;20061;-79
2023/10/23 00:46:34;;;;;;;52.85;18.98;;;5.20;99.90;;;;;;4983595;28;20097;-78
2023/10/23 00:49:01;;;;;;;45.72;18.27;;;6.80;99.90;;;;;;4979662;28;20151;-76
2023/10/23 00:51:28;;;;;;;45.83;17.45;;;5.10;99.90;;;;;;4968919;28;20615;-77
2023/10/23 00:53:55;;;;;;;32.15;17.42;;;5.30;99.90;;;;;;4996847;28;20045;-76
2023/10/23 00:56:25;;;;;;;40.75;19.25;;;5.20;99.90;;;;;;4963111;28;20120;-80
2023/10/23 00:58:50;;;;;;;64.05;22.10;;;5.20;99.90;;;;;;4981841;28;20057;-75
2023/10/23 01:01:17;;;;;;;66.95;22.98;;;5.50;99.90;;;;;;4982242;28;20053;-74
2023/10/23 01:03:45;;;;;;;68.22;21.45;;;5.20;99.90;;;;;;4979803;28;20146;-75
2023/10/23 01:06:14;;;;;;;51.17;21.90;;;5.20;99.90;;;;;;4993031;28;20064;-80
2023/10/23 01:08:40;;;;;;;36.20;17.83;;;5.80;99.90;;;;;;4982879;28;20069;-77
2023/10/23 01:11:09;;;;;;;48.28;19.25;;;7.00;99.90;;;;;;4965480;28;20042;-79
2023/10/23 01:13:34;;;;;;;55.45;21.45;;;5.10;99.90;;;;;;4991916;28;20053;-75
2023/10/23 01:16:00;;;;;;;61.35;21.55;;;5.20;99.90;;;;;;4991788;28;20058;-77
2023/10/23 01:18:26;;;;;;;66.80;23.58;;;5.20;99.90;;;;;;4973069;28;20049;-77
2023/10/23 01:20:52;;;;;;;50.45;21.20;;;5.10;99.90;;;;;;4982867;28;20454;-79
2023/10/23 01:23:23;;;;;;;63.85;23.38;;;5.70;99.90;;;;;;4986899;28;20108;-77
2023/10/23 01:25:49;;;;;;;57.42;22.23;;;5.10;99.90;;;;;;4983591;28;20133;-79
2023/10/23 01:28:15;;;;;;;50.55;20.35;;;6.10;99.90;;;;;;4975450;28;20148;-79
2023/10/23 01:30:41;;;;;;;63.85;23.75;;;5.00;99.90;;;;;;4980869;28;20046;-76
2023/10/23 01:33:07;;;;;;;52.15;21.48;;;5.00;99.90;;;;;;4967606;28;20053;-76
2023/10/23 01:35:32;;;;;;;60.25;22.52;;;5.70;99.90;;;;;;4969990;28;20042;-76
2023/10/23 01:37:59;;;;;;;60.30;22.85;;;4.90;99.90;;;;;;4973744;28;20099;-75
2023/10/23 01:40:24;;;;;;;40.45;18.98;;;4.90;99.90;;;;;;4992609;28;20581;-77
2023/10/23 01:42:50;;;;;;;60.75;22.80;;;7.20;99.90;;;;;;4990091;28;20065;-77
2023/10/23 01:45:18;;;;;;;32.67;17.90;;;5.90;99.90;;;;;;4985582;28;20054;-78
2023/10/23 01:47:44;;;;;;;67.60;22.30;;;5.00;99.90;;;;;;4994738;28;20064;-77
2023/10/23 01:50:10;;;;;;;45.13;20.17;;;4.80;99.90;;;;;;4979167;28;20100;-77
2023/10/23 01:52:36;;;;;;;59.40;22.17;;;5.30;99.90;;;;;;4994052;28;20085;-77
2023/10/23 01:55:02;;;;;;;61.53;22.20;;;5.30;99.90;;;;;;4994900;28;20494;-78
2023/10/23 01:57:28;;;;;;;49.45;19.92;;;4.90;99.90;;;;;;4997811;28;20056;-79
2023/10/23 01:59:55;;;;;;;60.17;22.67;;;5.90;99.90;;;;;;4994060;28;20145;-76
2023/10/23 02:02:21;;;;;;;60.25;22.42;;;4.90;99.90;;;;;;4974771;28;20057;-76
2023/10/23 02:04:47;;;;;;;65.15;21.48;;;4.80;99.90;;;;;;4970732;28;20052;-78
2023/10/23 02:07:13;;;;;;;58.63;22.52;;;4.90;99.90;;;;;;4986261;28;20053;-79
2023/10/23 02:09:38;;;;;;;42.70;19.42;;;4.80;99.90;;;;;;4982046;28;20049;-75
2023/10/23 02:12:05;;;;;;;55.53;22.30;;;4.80;99.90;;;;;;5004284;28;20052;-77
2023/10/23 02:14:30;;;;;;;59.92;23.20;;;4.80;99.90;;;;;;4991192;28;20068;-76
2023/10/23 02:16:59;;;;;;;44.38;19.83;;;4.80;99.90;;;;;;5000921;28;20045;-76
2023/10/23 02:19:28;;;;;;;49.17;21.48;;;5.10;99.90;;;;;;4986309;28;20056;-76
2023/10/23 02:21:57;;;;;;;60.60;22.30;;;5.10;99.90;;;;;;4982790;28;20064;-80
2023/10/23 02:24:23;;;;;;;44.65;20.95;;;5.70;99.90;;;;;;4968557;28;20081;-79
2023/10/23 02:26:49;;;;;;;61.58;22.48;;;4.80;99.90;;;;;;4985073;28;20053;-78
2023/10/23 02:29:15;;;;;;;74.38;24.23;;;5.80;99.90;;;;;;4983842;28;20747;-76
2023/10/23 02:31:41;;;;;;;37.90;18.23;;;5.30;99.90;;;;;;4989063;28;20050;-77
2023/10/23 02:34:07;;;;;;;40.50;18.35;;;5.00;99.90;;;;;;4981343;28;20045;-76
2023/10/23 02:36:33;;;;;;;43.72;18.00;;;4.90;99.90;;;;;;4974867;28;20135;-77
2023/10/23 02:38:59;;;;;;;61.30;21.83;;;7.10;99.90;;;;;;4979444;28;20049;-78
2023/10/23 02:41:27;;;;;;;60.13;21.10;;;4.60;99.90;;;;;;4994392;28;20600;-80
2023/10/23 02:43:53;;;;;;;44.10;19.45;;;7.20;99.90;;;;;;4973451;28;20058;-78
2023/10/23 02:46:20;;;;;;;71.70;24.08;;;4.50;99.90;;;;;;4965621;28;20056;-80
2023/10/23 02:48:46;;;;;;;60.92;22.30;;;4.50;99.90;;;;;;4982263;28;20057;-77
2023/10/23 02:51:12;;;;;;;63.28;23.48;;;4.50;99.90;;;;;;4970854;28;20854;-78
2023/10/23 02:53:38;;;;;;;65.85;22.63;;;5.50;99.90;;;;;;4996535;28;20510;-80
2023/10/23 02:56:10;;;;;;;59.10;20.67;;;4.60;99.90;;;;;;4969763;28;20103;-81
2023/10/23 02:58:36;;;;;;;60.78;20.38;;;4.50;99.90;;;;;;4976383;28;20521;-80
2023/10/23 03:01:02;;;;;;;67.97;21.67;;;6.60;99.90;;;;;;4970541;28;20057;-79
2023/10/23 03:03:28;;;;;;;64.75;21.52;;;6.20;99.90;;;;;;4985244;28;20062;-79
2023/10/23 03:05:54;;;;;;;47.38;18.52;;;4.30;99.90;;;;;;5016731;28;20409;-78
2023/10/23 03:08:20;;;;;;;35.67;17.30;;;5.90;99.90;;;;;;4994514;28;20041;-80
2023/10/23 03:10:48;;;;;;;51.42;19.33;;;4.60;99.90;;;;;;4982745;28;20049;-79
2023/10/23 03:13:14;;;;;;;54.80;21.55;;;5.80;99.90;;;;;;4991902;28;20049;-77
2023/10/23 03:15:40;;;;;;;53.63;20.17;;;4.30;99.90;;;;;;4992468;28;20047;-77
2023/10/23 03:18:06;;;;;;;66.90;23.05;;;4.30;99.90;;;;;;4976063;28;20665;-80
2023/10/23 03:20:32;;;;;;;44.42;18.67;;;4.30;99.90;;;;;;4983183;28;20046;-77
2023/10/23 03:22:58;;;;;;;64.80;22.55;;;4.30;99.90;;;;;;4986342;28;20060;-78
2023/10/23 03:25:24;;;;;;;64.90;22.98;;;4.30;99.90;;;;;;4982292;28;20054;-79
2023/10/23 03:27:50;;;;;;;69.85;23.38;;;4.30;99.90;;;;;;4988315;28;20046;-80
2023/10/23 03:30:16;;;;;;;41.65;20.27;;;4.30;99.90;;;;;;4994724;28;20114;-80
2023/10/23 03:32:42;;;;;;;41.58;20.58;;;5.90;99.90;;;;;;4987479;28;20061;-77
2023/10/23 03:35:08;;;;;;;65.82;26.10;;;6.50;99.90;;;;;;4993328;28;20730;-77
2023/10/23 03:37:33;;;;;;;49.05;22.08;;;4.40;99.90;;;;;;4982981;28;20137;-77
2023/10/23 03:39:59;;;;;;;84.28;28.13;;;4.90;99.90;;;;;;4998624;28;20052;-78
2023/10/23 03:42:25;;;;;;;40.88;21.55;;;5.90;99.90;;;;;;4985546;28;20049;-79
2023/10/23 03:44:51;;;;;;;57.15;24.27;;;4.50;99.90;;;;;;4983739;28;20053;-77
2023/10/23 03:47:16;;;;;;;108.07;32.25;;;4.40;99.90;;;;;;4976645;28;20906;-77
2023/10/23 03:49:42;;;;;;;41.00;20.83;;;4.50;99.90;;;;;;4993867;28;20058;-77
2023/10/23 03:52:08;;;;;;;47.75;22.40;;;6.40;99.90;;;;;;5005888;28;20129;-78
2023/10/23 03:54:34;;;;;;;96.22;29.13;;;4.50;99.90;;;;;;4969070;28;20151;-79
2023/10/23 03:57:00;;;;;;;54.35;22.67;;;4.40;99.90;;;;;;4979177;28;20108;-81
2023/10/23 03:59:26;;;;;;;60.80;24.55;;;4.30;99.90;;;;;;4979713;28;20053;-77
2023/10/23 04:01:52;;;;;;;65.03;25.55;;;4.30;99.90;;;;;;4987227;28;20747;-77
2023/10/23 04:04:18;;;;;;;55.92;23.17;;;7.60;99.90;;;;;;4995392;28;20061;-81
2023/10/23 04:06:43;;;;;;;55.10;24.02;;;4.20;99.90;;;;;;4976425;28;20049;-77
2023/10/23 04:09:09;;;;;;;87.93;26.98;;;4.10;99.90;;;;;;4977827;28;20056;-78
2023/10/23 04:11:35;;;;;;;88.18;28.40;;;3.40;99.90;;;;;;4985500;28;20049;-80
2023/10/23 04:14:01;;;;;;;52.13;23.13;;;6.30;99.90;;;;;;4992066;28;20516;-80
2023/10/23 04:16:27;;;;;;;53.50;23.15;;;6.60;99.90;;;;;;4990583;28;20510;-80
2023/10/23 04:18:53;;;;;;;54.67;23.13;;;4.10;99.90;;;;;;4976568;28;20136;-80
2023/10/23 04:21:20;;;;;;;59.95;25.27;;;4.90;99.90;;;;;;4980906;28;20049;-78
2023/10/23 04:23:46;;;;;;;55.30;24.65;;;4.10;99.90;;;;;;4987616;28;20527;-78
2023/10/23 04:26:12;;;;;;;108.18;32.28;;;5.90;99.90;;;;;;4993017;28;20071;-80
2023/10/23 04:28:38;;;;;;;54.33;27.40;;;6.50;99.90;;;;;;4976454;28;20058;-79
2023/10/23 04:31:04;;;;;;;68.28;29.55;;;4.30;99.90;;;;;;4993393;28;20074;-79
2023/10/23 04:33:30;;;;;;;69.22;30.05;;;5.60;99.90;;;;;;4997506;28;20107;-81
2023/10/23 04:35:57;;;;;;;80.97;31.90;;;4.60;99.90;;;;;;4987386;28;20045;-78
2023/10/23 04:38:26;;;;;;;113.00;35.88;;;5.20;99.90;;;;;;4967542;28;20077;-78
2023/10/23 04:40:55;;;;;;;60.40;29.60;;;4.50;99.90;;;;;;4970442;28;20057;-79
2023/10/23 04:43:21;;;;;;;110.90;37.03;;;4.40;99.90;;;;;;4990728;28;20477;-78
2023/10/23 04:45:48;;;;;;;72.18;32.05;;;4.40;99.90;;;;;;4982806;28;20418;-80
2023/10/23 04:48:14;;;;;;;68.25;31.63;;;5.40;99.90;;;;;;4968437;28;20055;-80
2023/10/23 04:50:40;;;;;;;113.60;36.90;;;5.00;99.90;;;;;;4986183;28;20066;-78
2023/10/23 04:53:06;;;;;;;97.93;35.15;;;5.10;99.90;;;;;;4986517;28;20049;-79
2023/10/23 04:55:40;;;;;;;101.22;35.28;;;6.10;99.90;;;;;;4979389;28;20487;-80
2023/10/23 04:58:07;;;;;;;84.50;32.75;;;4.30;99.90;;;;;;4971456;28;20100;-79
2023/10/23 05:00:38;;;;;;;104.50;34.67;;;4.40;99.90;;;;;;4993132;28;20155;-79
2023/10/23 05:03:04;;;;;;;70.93;31.20;;;5.50;99.90;;;;;;4984931;28;20088;-78
2023/10/23 05:05:33;;;;;;;155.35;42.75;;;5.40;99.90;;;;;;4996455;28;20096;-79
2023/10/23 05:07:59;;;;;;;206.48;46.95;;;4.50;99.90;;;;;;4973134;28;20662;-79
2023/10/23 05:10:25;;;;;;;139.15;39.28;;;1.60;99.90;;;;;;4967647;28;20072;-79
2023/10/23 05:12:51;;;;;;;90.15;33.85;;;5.40;99.90;;;;;;4985672;28;20502;-79
2023/10/23 05:15:17;;;;;;;63.38;30.15;;;4.40;99.90;;;;;;4993690;28;20046;-80
2023/10/23 05:17:44;;;;;;;88.85;32.85;;;4.40;99.90;;;;;;4968684;28;20053;-80
2023/10/23 05:20:10;;;;;;;173.70;43.15;;;6.90;99.90;;;;;;4983654;28;20113;-79
2023/10/23 05:22:36;;;;;;;119.55;36.47;;;4.40;99.90;;;;;;4966652;28;20041;-80
2023/10/23 05:25:02;;;;;;;170.85;42.35;;;4.40;99.90;;;;;;4983233;28;20526;-79
2023/10/23 05:27:28;;;;;;;145.35;39.05;;;4.30;99.90;;;;;;4983813;28;20046;-80
2023/10/23 05:29:54;;;;;;;120.78;36.40;;;4.40;99.90;;;;;;4989926;28;20061;-80
2023/10/23 05:32:19;;;;;;;120.15;35.78;;;4.20;99.90;;;;;;4990655;28;20050;-80
2023/10/23 05:34:46;;;;;;;122.65;34.92;;;4.20;99.90;;;;;;4992615;28;20444;-80
2023/10/23 05:37:12;;;;;;;176.80;43.00;;;5.60;99.90;;;;;;4982220;28;20062;-80
2023/10/23 05:39:38;;;;;;;126.00;35.97;;;6.20;99.90;;;;;;4983961;28;20050;-80
2023/10/23 05:42:06;;;;;;;128.75;36.63;;;4.10;99.90;;;;;;4991298;28;20103;-80
2023/10/23 05:44:32;;;;;;;62.17;23.83;;;4.10;99.90;;;;;;4988958;28;20061;-80
2023/10/23 05:46:58;;;;;;;141.52;33.40;;;5.60;99.90;;;;;;5006354;28;20139;-80
2023/10/23 05:49:23;;;;;;;116.47;31.58;;;5.10;99.90;;;;;;4989959;28;20137;-80
2023/10/23 05:51:49;;;;;;;125.72;33.75;;;4.00;99.90;;;;;;4993093;28;20081;-80
2023/10/23 05:54:16;;;;;;;107.95;32.55;;;4.20;99.90;;;;;;4996971;28;20053;-80
2023/10/23 05:56:43;;;;;;;86.95;29.02;;;3.90;99.90;;;;;;4995250;28;20786;-80
2023/10/23 05:59:09;;;;;;;117.90;32.67;;;4.40;99.90;;;;;;4996041;28;20147;-79
2023/10/23 06:01:36;;;;;;;94.22;28.08;;;3.80;99.90;;;;;;4985634;28;20050;-80
2023/10/23 06:04:04;;;;;;;118.90;33.20;;;6.30;99.90;;;;;;4988289;28;20049;-80
2023/10/23 06:06:40;;;;;;;91.85;30.02;;;3.70;99.90;;;;;;4974150;28;20057;-80
2023/10/23 06:09:06;;;;;;;104.22;29.77;;;3.70;99.90;;;;;;4979429;28;20148;-80
2023/10/23 06:11:31;;;;;;;55.08;23.42;;;4.60;99.90;;;;;;4989969;28;20780;-80
2023/10/23 06:13:57;;;;;;;102.50;27.35;;;4.00;99.90;;;;;;4981560;28;20050;-80
2023/10/23 06:16:23;;;;;;;101.25;29.90;;;3.60;99.90;;;;;;4966410;28;20053;-80
2023/10/23 06:18:49;;;;;;;93.20;27.40;;;6.20;99.90;;;;;;4987851;28;20085;-81
2023/10/23 06:21:14;;;;;;;106.93;27.98;;;5.50;99.90;;;;;;4990803;28;20115;-80
2023/10/23 06:23:40;;;;;;;100.00;27.83;;;3.50;99.90;;;;;;4982575;28;20042;-80
2023/10/23 06:26:09;;;;;;;77.57;25.55;;;4.80;99.90;;;;;;4992538;28;20137;-80
2023/10/23 06:28:35;;;;;;;69.68;25.10;;;6.30;99.90;;;;;;4985532;28;20061;-80
2023/10/23 06:31:09;;;;;;;106.53;30.33;;;3.50;99.90;;;;;;4990805;28;20050;-80
2023/10/23 06:33:36;;;;;;;53.28;21.33;;;4.50;99.90;;;;;;4986354;28;20115;-80
2023/10/23 06:36:04;;;;;;;108.00;30.67;;;3.50;99.90;;;;;;5003657;28;20064;-80
2023/10/23 06:38:30;;;;;;;91.80;29.08;;;3.60;99.90;;;;;;4987142;28;20789;-80
2023/10/23 06:41:01;;;;;;;61.55;25.67;;;4.90;99.90;;;;;;5005501;28;20053;-80
2023/10/23 06:43:27;;;;;;;146.45;37.55;;;3.60;99.90;;;;;;4992842;28;20057;-80
2023/10/23 06:45:57;;;;;;;60.38;27.05;;;6.10;99.90;;;;;;4980949;28;20050;-80
2023/10/23 06:48:26;;;;;;;66.07;28.85;;;4.30;99.90;;;;;;4962628;28;20160;-80
2023/10/23 06:50:52;;;;;;;88.65;33.15;;;3.90;99.90;;;;;;4989871;28;20089;-80
2023/10/23 06:53:18;;;;;;;121.03;37.42;;;4.00;99.90;;;;;;4990208;28;20423;-80
2023/10/23 06:55:51;;;;;;;97.25;34.95;;;4.00;99.90;;;;;;4969946;28;20053;-80
2023/10/23 06:58:19;;;;;;;149.55;43.33;;;4.20;99.90;;;;;;4985954;28;20525;-80
2023/10/23 07:00:45;;;;;;;119.38;39.97;;;5.30;99.90;;;;;;4981193;28;20077;-80
2023/10/23 07:03:11;;;;;;;133.23;38.78;;;4.30;99.90;;;;;;4984384;28;20049;-80
2023/10/23 07:05:37;;;;;;;82.38;35.17;;;4.30;99.90;;;;;;4985022;28;20041;-80
2023/10/23 07:08:06;;;;;;;91.65;37.92;;;4.40;99.90;;;;;;4981041;28;20053;-80
2023/10/23 07:10:35;;;;;;;131.77;43.97;;;5.10;99.90;;;;;;4982333;28;20050;-80
2023/10/23 07:13:02;;;;;;;119.40;41.67;;;5.30;99.90;;;;;;4992683;28;20111;-81
2023/10/23 07:15:28;;;;;;;103.70;40.55;;;4.60;99.90;;;;;;4986222;28;20111;-81
2023/10/23 07:17:54;;;;;;;112.38;38.88;;;5.60;99.90;;;;;;4981128;28;20415;-79
2023/10/23 07:20:20;;;;;;;117.55;43.67;;;7.00;99.90;;;;;;4996916;28;20042;-80
2023/10/23 07:22:46;;;;;;;137.70;45.95;;;5.40;99.90;;;;;;4990836;28;20053;-80
2023/10/23 07:25:12;;;;;;;85.63;38.67;;;6.60;99.90;;;;;;4984723;28;20068;-80
2023/10/23 07:27:47;;;;;;;88.03;38.90;;;5.90;99.90;;;;;;4989083;28;20058;-80
2023/10/23 07:30:13;;;;;;;81.35;35.90;;;5.00;99.90;;;;;;4988113;28;20057;-81
2023/10/23 07:32:42;;;;;;;95.72;38.33;;;5.10;99.90;;;;;;4992675;28;20100;-80
2023/10/23 07:35:11;;;;;;;103.45;41.17;;;6.00;99.90;;;;;;4993053;28;20124;-80
2023/10/23 07:37:37;;;;;;;93.45;39.70;;;5.30;99.90;;;;;;4987067;28;20053;-81
2023/10/23 07:40:07;;;;;;;85.13;41.00;;;5.30;99.90;;;;;;4987812;28;20061;-80
2023/10/23 07:42:33;;;;;;;88.68;38.78;;;5.40;99.90;;;;;;4991737;28;20052;-80
2023/10/23 07:44:59;;;;;;;84.63;39.03;;;5.50;99.90;;;;;;5000226;28;20049;-80
2023/10/23 07:47:27;;;;;;;153.57;49.28;;;7.80;99.90;;;;;;4985887;28;20125;-80
2023/10/23 07:49:53;;;;;;;131.70;47.20;;;6.90;99.90;;;;;;4981652;28;20558;-80
2023/10/23 07:52:19;;;;;;;154.38;47.13;;;5.70;99.90;;;;;;4994834;28;20140;-80
2023/10/23 07:54:44;;;;;;;137.98;47.03;;;6.80;99.90;;;;;;4985988;28;20050;-80
2023/10/23 07:57:10;;;;;;;87.55;39.00;;;7.00;99.90;;;;;;4994048;28;20081;-81
2023/10/23 07:59:36;;;;;;;65.70;36.13;;;5.90;99.90;;;;;;4986796;28;20041;-81
2023/10/23 08:02:03;;;;;;;105.95;44.75;;;8.10;99.90;;;;;;4976097;28;20196;-79
2023/10/23 08:04:28;;;;;;;90.85;41.95;;;5.90;99.90;;;;;;4953826;28;20568;-80
2023/10/23 08:06:54;;;;;;;131.18;47.08;;;6.20;99.90;;;;;;4993809;28;20068;-81
2023/10/23 08:09:20;;;;;;;235.70;61.22;;;6.70;99.90;;;;;;4987911;28;20170;-80
2023/10/23 08:11:47;;;;;;;156.60;51.22;;;6.50;99.90;;;;;;4977136;28;20049;-81
2023/10/23 08:14:13;;;;;;;120.88;48.67;;;7.10;99.90;;;;;;4987316;28;20057;-81
2023/10/23 08:16:38;;;;;;;232.60;60.75;;;6.90;99.90;;;;;;4982611;28;20053;-81
2023/10/23 08:19:09;;;;;;;92.15;42.97;;;8.60;99.90;;;;;;4979982;28;20045;-80
2023/10/23 08:21:42;;;;;;;75.22;41.05;;;7.50;99.90;;;;;;5000713;28;20050;-80
2023/10/23 08:24:08;;;;;;;245.73;67.72;;;8.00;99.90;;;;;;4984741;28;20080;-80
2023/10/23 08:26:33;;;;;;;250.93;67.63;;;7.70;99.90;;;;;;4988024;28;20503;-80
2023/10/23 08:28:59;;;;;;;104.60;49.47;;;7.70;99.90;;;;;;4971593;28;20050;-79
2023/10/23 08:31:27;;;;;;;90.47;44.90;;;7.70;99.90;;;;;;4971760;28;20046;-80
2023/10/23 08:33:53;;;;;;;85.15;45.72;;;7.80;99.90;;;;;;4992042;28;20053;-81
2023/10/23 08:36:19;;;;;;;164.23;58.97;;;8.00;99.90;;;;;;4971593;28;20050;-82
2023/10/23 08:38:45;;;;;;;75.32;44.17;;;7.90;99.90;;;;;;4976193;28;20058;-79
2023/10/23 08:41:12;;;;;;;155.05;59.85;;;8.00;99.90;;;;;;4963281;28;20095;-80
2023/10/23 08:43:39;;;;;;;88.90;45.80;;;8.80;99.90;;;;;;4979268;28;20798;-81
2023/10/23 08:46:08;;;;;;;187.30;63.80;;;8.90;99.90;;;;;;4975134;28;20054;-79
2023/10/23 08:48:36;;;;;;;80.00;46.35;;;8.20;99.90;;;;;;4995953;28;21090;-79
2023/10/23 08:51:02;;;;;;;137.88;54.85;;;9.60;99.90;;;;;;4975251;28;20100;-78
2023/10/23 08:53:33;;;;;;;82.45;47.53;;;8.50;99.90;;;;;;4994388;28;20077;-79
2023/10/23 08:56:09;;;;;;;208.10;69.10;;;8.50;99.90;;;;;;4985936;28;20049;-80
2023/10/23 08:58:37;;;;;;;203.60;68.53;;;8.60;99.90;;;;;;4978223;28;20137;-80
2023/10/23 09:01:03;;;;;;;84.13;46.63;;;8.70;99.90;;;;;;4992771;28;20057;-78
2023/10/23 09:03:32;;;;;;;194.55;64.97;;;8.80;99.90;;;;;;4980661;28;20189;-78
2023/10/23 09:05:59;;;;;;;106.25;53.22;;;8.90;99.90;;;;;;4984770;28;20049;-82
2023/10/23 09:08:31;;;;;;;126.90;56.65;;;9.20;99.90;;;;;;4987420;28;20057;-77
2023/10/23 09:11:04;;;;;;;69.97;42.67;;;9.10;99.90;;;;;;4987077;28;20449;-76
2023/10/23 09:13:38;;;;;;;141.13;59.45;;;9.10;99.90;;;;;;4984434;28;20049;-80
2023/10/23 09:16:09;;;;;;;101.07;51.25;;;9.10;99.90;;;;;;4986922;28;20049;-77
2023/10/23 09:18:49;;;;;;;90.63;49.72;;;9.60;99.90;;;;;;4978658;28;20755;-79
2023/10/23 09:21:15;;;;;;;102.05;49.38;;;9.20;99.90;;;;;;4974329;28;20038;-79
2023/10/23 09:23:55;;;;;;;144.43;55.90;;;9.40;99.90;;;;;;4992037;28;20479;-76
2023/10/23 09:26:24;;;;;;;103.43;50.30;;;9.60;99.90;;;;;;4980118;28;20087;-75
2023/10/23 09:28:54;;;;;;;93.03;47.78;;;9.40;99.90;;;;;;4984994;28;20053;-78
2023/10/23 09:31:21;;;;;;;71.07;41.15;;;9.40;99.90;;;;;;4990930;28;20051;-78
2023/10/23 09:33:48;;;;;;;97.47;47.47;;;9.40;99.90;;;;;;4983228;28;20157;-77
2023/10/23 09:36:15;;;;;;;73.82;43.45;;;10.90;99.90;;;;;;5001612;28;20490;-76
2023/10/23 09:38:57;;;;;;;79.70;42.45;;;9.50;99.90;;;;;;4990324;28;20061;-78
2023/10/23 09:41:22;;;;;;;113.65;50.83;;;9.60;99.90;;;;;;4999993;28;20041;-76
2023/10/23 09:43:50;;;;;;;106.38;46.15;;;9.60;99.90;;;;;;4985851;28;20049;-80
2023/10/23 09:46:18;;;;;;;127.32;54.25;;;9.60;99.90;;;;;;4995604;28;20057;-77
2023/10/23 09:48:44;;;;;;;106.72;51.38;;;9.70;99.90;;;;;;5002234;28;20054;-78
2023/10/23 09:51:14;;;;;;;119.35;50.45;;;9.80;99.90;;;;;;4990562;28;20062;-78
2023/10/23 09:53:47;;;;;;;168.82;53.97;;;9.80;99.90;;;;;;4976393;28;20041;-78
2023/10/23 09:56:19;;;;;;;121.10;50.92;;;9.80;99.90;;;;;;4994497;28;20049;-76
2023/10/23 09:58:59;;;;;;;196.40;53.92;;;9.80;99.90;;;;;;4983106;28;20057;-76
2023/10/23 10:01:34;;;;;;;231.38;52.08;;;9.90;99.90;;;;;;4987239;28;20053;-76
2023/10/23 10:04:11;;;;;;;210.65;54.33;;;10.00;99.90;;;;;;5001577;28;20107;-80
2023/10/23 10:06:46;;;;;;;144.90;46.13;;;10.00;99.90;;;;;;4971926;28;20096;-77
2023/10/23 10:09:13;;;;;;;254.85;47.15;;;10.00;99.90;;;;;;4958688;28;22093;-74
2023/10/23 10:11:45;;;;;;;110.10;41.17;;;10.10;99.90;;;;;;4944793;28;20061;-75
2023/10/23 10:14:14;;;;;;;;;;;10.20;99.90;;;;;;4963110;28;20049;-79
2023/10/23 10:16:43;;;;;;;153.60;39.30;;;10.20;99.90;;;;;;4980200;28;20618;-76
2023/10/23 10:19:09;;;;;;;103.47;35.22;;;10.20;99.90;;;;;;4960750;28;20495;-79
2023/10/23 10:21:47;;;;;;;115.05;35.58;;;10.20;99.90;;;;;;4961290;28;20060;-75
2023/10/23 10:24:14;;;;;;;88.70;34.53;;;10.30;99.90;;;;;;4960139;28;20530;-77
2023/10/23 10:26:43;;;;;;;97.10;31.20;;;10.40;99.90;;;;;;4964504;28;20136;-79
2023/10/23 10:29:18;;;;;;;92.88;32.83;;;10.20;99.90;;;;;;4962378;28;20053;-76
2023/10/23 10:32:13;;;;;;;58.05;29.88;;;10.20;99.90;;;;;;4952660;28;20081;-80
2023/10/23 10:34:45;;;;;;;46.22;27.75;;;12.70;99.90;;;;;;4953004;28;20066;-80
2023/10/23 10:37:11;;;;;;;49.72;27.13;;;10.50;99.90;;;;;;4963134;28;20062;-78
2023/10/23 10:39:47;;;;;;;42.10;24.50;;;10.60;99.90;;;;;;4950517;28;20091;-75
2023/10/23 10:42:21;;;;;;;38.67;23.38;;;10.70;99.90;;;;;;4973525;28;20061;-75
2023/10/23 10:45:07;;;;;;;38.88;23.65;;;10.80;99.90;;;;;;4966615;28;20041;-79
2023/10/23 10:47:44;;;;;;;36.45;22.33;;;10.80;99.90;;;;;;4977400;28;20196;-77
2023/10/23 10:50:10;;;;;;;46.30;20.58;;;10.80;99.90;;;;;;4961224;28;20049;-75
2023/10/23 10:52:38;;;;;;;27.38;19.08;;;10.70;99.90;;;;;;4943881;28;20705;-77
2023/10/23 10:55:11;;;;;;;26.60;18.80;;;10.80;99.90;;;;;;4965538;28;20050;-74
2023/10/23 10:57:42;;;;;;;30.98;18.25;;;10.80;99.90;;;;;;4977493;28;20065;-77
2023/10/23 11:00:09;;;;;;;25.02;17.75;;;10.80;99.90;;;;;;4957097;28;20144;-74
2023/10/23 11:02:36;;;;;;;31.77;17.13;;;10.80;99.90;;;;;;4942173;28;20065;-79
2023/10/23 11:05:12;;;;;;;67.20;19.85;;;10.80;99.90;;;;;;4965819;28;20477;-75
2023/10/23 11:07:43;;;;;;;32.25;19.55;;;10.80;99.90;;;;;;4957824;28;20056;-78
2023/10/23 11:10:14;;;;;;;23.53;18.50;;;10.80;99.90;;;;;;4962360;28;20108;-80
2023/10/23 11:12:41;;;;;;;33.65;18.42;;;10.90;99.90;;;;;;4938458;28;20054;-78
2023/10/23 11:15:07;;;;;;;23.80;16.90;;;11.00;99.90;;;;;;4982381;28;20181;-74
2023/10/23 11:17:33;;;;;;;23.55;16.73;;;11.10;99.90;;;;;;4958503;28;20135;-77
2023/10/23 11:19:59;;;;;;;23.13;18.23;;;11.10;99.90;;;;;;4940631;28;20054;-73
2023/10/23 11:22:25;;;;;;;22.98;17.20;;;11.10;99.90;;;;;;4960303;28;20092;-77
2023/10/23 11:24:52;;;;;;;19.83;15.82;;;11.30;99.90;;;;;;4954649;28;22184;-76
2023/10/23 11:27:17;;;;;;;19.63;15.02;;;11.30;99.90;;;;;;4954871;28;20103;-74
2023/10/23 11:29:45;;;;;;;17.45;14.07;;;11.60;99.90;;;;;;4987166;28;20577;-75
2023/10/23 11:32:13;;;;;;;16.55;13.77;;;11.30;99.90;;;;;;4947427;28;21215;-74
2023/10/23 11:34:39;;;;;;;20.95;15.05;;;11.20;99.90;;;;;;4958495;28;20062;-73
2023/10/23 11:37:10;;;;;;;18.67;15.07;;;11.10;99.90;;;;;;4971859;28;20054;-78
2023/10/23 11:39:38;;;;;;;20.15;14.30;;;11.00;99.90;;;;;;4953747;28;20048;-76
2023/10/23 11:42:06;;;;;;;21.67;15.60;;;11.00;99.90;;;;;;4970011;28;20058;-74
2023/10/23 11:44:36;;;;;;;19.67;14.15;;;10.90;99.90;;;;;;4974681;28;20853;-76
2023/10/23 11:47:07;;;;;;;21.38;15.15;;;10.90;99.90;;;;;;4964670;28;20071;-77
2023/10/23 11:49:33;;;;;;;20.17;15.00;;;8.20;99.90;;;;;;4946410;28;20077;-77
2023/10/23 11:52:03;;;;;;;21.98;15.45;;;10.90;99.90;;;;;;4968615;28;20050;-77
2023/10/23 11:54:30;;;;;;;19.73;15.73;;;10.90;99.90;;;;;;4948216;28;20482;-73
2023/10/23 11:56:59;;;;;;;25.67;17.13;;;10.90;99.90;;;;;;4946432;28;20095;-79
2023/10/23 11:59:26;;;;;;;21.73;16.15;;;10.90;99.90;;;;;;4963623;28;20061;-77
2023/10/23 12:01:54;;;;;;;25.15;16.73;;;10.80;99.90;;;;;;4956741;28;20060;-80
2023/10/23 12:04:19;;;;;;;25.77;17.85;;;13.20;99.90;;;;;;4959689;28;20053;-72
2023/10/23 12:06:46;;;;;;;26.88;17.92;;;10.80;99.90;;;;;;4970273;28;20508;-73
2023/10/23 12:09:11;;;;;;;25.27;17.85;;;10.80;99.90;;;;;;4963067;28;20626;-77
2023/10/23 12:11:40;;;;;;;28.88;18.67;;;10.90;99.90;;;;;;4952895;28;20069;-75
2023/10/23 12:14:06;;;;;;;30.08;19.00;;;10.90;99.90;;;;;;4954676;28;20054;-72
2023/10/23 12:16:32;;;;;;;29.25;19.75;;;11.00;99.90;;;;;;4958626;28;20057;-76
2023/10/23 12:18:59;;;;;;;30.15;18.92;;;11.00;99.90;;;;;;4966315;28;20049;-75
2023/10/23 12:21:25;;;;;;;37.80;21.77;;;11.10;99.90;;;;;;4954712;28;20183;-73
2023/10/23 12:23:52;;;;;;;35.10;22.85;;;11.10;99.90;;;;;;4959915;28;20096;-76
2023/10/23 12:26:21;;;;;;;36.28;22.90;;;11.20;99.90;;;;;;4956783;28;20130;-78
2023/10/23 12:28:47;;;;;;;38.22;22.58;;;11.20;99.90;;;;;;4963196;28;20054;-75
2023/10/23 12:31:13;;;;;;;33.67;21.13;;;11.20;99.90;;;;;;4961140;28;20151;-73
2023/10/23 12:33:39;;;;;;;31.88;20.88;;;11.30;99.90;;;;;;4961663;28;20524;-76